sensor_id;sensor_type;location;lat;lon;timestamp;pressure;altitude;pressure_sealevel;temperature;humidity
79376;BME280;68846;53.150;18.136;2023-06-10T00:02:23;101145.09;;;19.86;54.85
79376;BME280;68846;53.150;18.136;2023-06-10T00:04:51;101150.67;;;19.83;54.88
79376;BME280;68846;53.150;18.136;2023-06-10T00:07:23;101155.89;;;19.82;54.95
79376;BME280;68846;53.150;18.136;2023-06-10T00:10:07;101157.00;;;19.80;54.89
79376;BME280;68846;53.150;18.136;2023-06-10T00:12:45;101155.02;;;19.81;54.91
79376;BME280;68846;53.150;18.136;2023-06-10T00:15:12;101156.08;;;19.82;54.82
79376;BME280;68846;53.150;18.136;2023-06-10T00:17:39;101161.77;;;19.82;54.89
79376;BME280;68846;53.150;18.136;2023-06-10T00:20:07;101163.05;;;19.82;54.84
79376;BME280;68846;53.150;18.136;2023-06-10T00:22:35;101165.58;;;19.81;54.81
79376;BME280;68846;53.150;18.136;2023-06-10T00:25:02;101162.55;;;19.79;54.77
79376;BME280;68846;53.150;18.136;2023-06-10T00:27:30;101152.52;;;19.71;54.84
79376;BME280;68846;53.150;18.136;2023-06-10T00:30:27;101159.94;;;19.75;54.77
79376;BME280;68846;53.150;18.136;2023-06-10T00:32:54;101164.05;;;19.75;54.74
79376;BME280;68846;53.150;18.136;2023-06-10T00:35:21;101164.45;;;19.74;54.67
79376;BME280;68846;53.150;18.136;2023-06-10T00:37:48;101166.04;;;19.75;54.74
79376;BME280;68846;53.150;18.136;2023-06-10T00:40:16;101167.85;;;19.73;54.80
79376;BME280;68846;53.150;18.136;2023-06-10T00:42:43;101157.05;;;19.67;54.85
79376;BME280;68846;53.150;18.136;2023-06-10T00:45:09;101162.19;;;19.70;54.87
79376;BME280;68846;53.150;18.136;2023-06-10T00:47:37;101166.34;;;19.68;55.00
79376;BME280;68846;53.150;18.136;2023-06-10T00:50:04;101168.33;;;19.66;55.10
79376;BME280;68846;53.150;18.136;2023-06-10T00:52:33;101161.51;;;19.58;55.03
79376;BME280;68846;53.150;18.136;2023-06-10T00:55:26;101172.90;;;19.61;55.30
79376;BME280;68846;53.150;18.136;2023-06-10T00:57:54;101176.54;;;19.57;55.28
79376;BME280;68846;53.150;18.136;2023-06-10T01:00:21;101179.74;;;19.57;55.25
79376;BME280;68846;53.150;18.136;2023-06-10T01:02:49;101183.52;;;19.55;55.42
79376;BME280;68846;53.150;18.136;2023-06-10T01:05:16;101187.53;;;19.51;55.42
79376;BME280;68846;53.150;18.136;2023-06-10T01:07:54;101186.47;;;19.50;55.39
79376;BME280;68846;53.150;18.136;2023-06-10T01:10:33;101188.93;;;19.52;55.19
79376;BME280;68846;53.150;18.136;2023-06-10T01:13:02;101191.27;;;19.51;55.15
79376;BME280;68846;53.150;18.136;2023-06-10T01:15:34;101191.29;;;19.50;55.12
79376;BME280;68846;53.150;18.136;2023-06-10T01:18:04;101193.27;;;19.50;55.00
79376;BME280;68846;53.150;18.136;2023-06-10T01:20:32;101190.36;;;19.52;55.02
79376;BME280;68846;53.150;18.136;2023-06-10T01:23:00;101193.58;;;19.52;55.05
79376;BME280;68846;53.150;18.136;2023-06-10T01:25:29;101191.11;;;19.50;55.04
79376;BME280;68846;53.150;18.136;2023-06-10T01:31:00;101198.45;;;19.49;55.14
79376;BME280;68846;53.150;18.136;2023-06-10T01:33:29;101198.98;;;19.49;55.15
79376;BME280;68846;53.150;18.136;2023-06-10T01:35:58;101194.88;;;19.50;55.14
79376;BME280;68846;53.150;18.136;2023-06-10T01:38:27;101198.82;;;19.49;55.31
79376;BME280;68846;53.150;18.136;2023-06-10T01:40:56;101201.04;;;19.44;55.33
79376;BME280;68846;53.150;18.136;2023-06-10T01:43:23;101201.77;;;19.42;55.33
79376;BME280;68846;53.150;18.136;2023-06-10T01:45:50;101209.45;;;19.42;55.44
79376;BME280;68846;53.150;18.136;2023-06-10T01:48:17;101206.80;;;19.41;55.38
79376;BME280;68846;53.150;18.136;2023-06-10T01:50:44;101215.21;;;19.40;55.40
79376;BME280;68846;53.150;18.136;2023-06-10T01:53:11;101219.48;;;19.41;55.41
79376;BME280;68846;53.150;18.136;2023-06-10T01:55:38;101219.48;;;19.41;55.37
79376;BME280;68846;53.150;18.136;2023-06-10T01:58:06;101220.77;;;19.40;55.28
79376;BME280;68846;53.150;18.136;2023-06-10T02:00:33;101225.08;;;19.39;55.26
79376;BME280;68846;53.150;18.136;2023-06-10T02:03:01;101225.99;;;19.36;55.22
79376;BME280;68846;53.150;18.136;2023-06-10T02:05:29;101226.52;;;19.36;55.34
79376;BME280;68846;53.150;18.136;2023-06-10T02:07:56;101230.56;;;19.30;55.35
79376;BME280;68846;53.150;18.136;2023-06-10T02:10:23;101231.17;;;19.25;55.38
79376;BME280;68846;53.150;18.136;2023-06-10T02:12:50;101234.84;;;19.20;55.33
79376;BME280;68846;53.150;18.136;2023-06-10T02:15:17;101240.66;;;19.13;55.39
79376;BME280;68846;53.150;18.136;2023-06-10T02:17:47;101236.82;;;19.08;55.43
79376;BME280;68846;53.150;18.136;2023-06-10T02:20:15;101239.70;;;19.06;55.35
79376;BME280;68846;53.150;18.136;2023-06-10T02:22:42;101243.27;;;19.05;55.33
79376;BME280;68846;53.150;18.136;2023-06-10T02:25:09;101241.88;;;19.03;55.25
79376;BME280;68846;53.150;18.136;2023-06-10T02:27:37;101229.52;;;18.94;55.45
79376;BME280;68846;53.150;18.136;2023-06-10T02:30:04;101240.17;;;18.98;55.43
79376;BME280;68846;53.150;18.136;2023-06-10T02:32:33;101239.27;;;18.99;55.32
79376;BME280;68846;53.150;18.136;2023-06-10T02:35:00;101240.13;;;19.00;55.30
79376;BME280;68846;53.150;18.136;2023-06-10T02:37:27;101237.85;;;18.98;55.28
79376;BME280;68846;53.150;18.136;2023-06-10T02:39:55;101243.94;;;18.97;55.22
79376;BME280;68846;53.150;18.136;2023-06-10T02:42:22;101246.07;;;18.97;55.21
79376;BME280;68846;53.150;18.136;2023-06-10T02:44:49;101246.81;;;18.95;55.17
79376;BME280;68846;53.150;18.136;2023-06-10T02:47:22;101250.61;;;18.92;55.17
79376;BME280;68846;53.150;18.136;2023-06-10T02:49:49;101251.02;;;18.89;55.20
79376;BME280;68846;53.150;18.136;2023-06-10T02:52:16;101255.11;;;18.89;55.20
79376;BME280;68846;53.150;18.136;2023-06-10T02:54:43;101259.07;;;18.87;55.24
79376;BME280;68846;53.150;18.136;2023-06-10T02:57:11;101256.79;;;18.85;55.22
79376;BME280;68846;53.150;18.136;2023-06-10T02:59:38;101264.66;;;18.83;55.32
79376;BME280;68846;53.150;18.136;2023-06-10T03:02:05;101267.23;;;18.78;55.56
79376;BME280;68846;53.150;18.136;2023-06-10T03:04:37;101274.05;;;18.74;55.67
79376;BME280;68846;53.150;18.136;2023-06-10T03:07:07;101277.71;;;18.68;55.73
79376;BME280;68846;53.150;18.136;2023-06-10T03:09:36;101284.73;;;18.61;55.89
79376;BME280;68846;53.150;18.136;2023-06-10T03:12:04;101287.11;;;18.56;55.93
79376;BME280;68846;53.150;18.136;2023-06-10T03:14:35;101290.17;;;18.53;55.96
79376;BME280;68846;53.150;18.136;2023-06-10T03:17:05;101300.20;;;18.51;55.82
79376;BME280;68846;53.150;18.136;2023-06-10T03:19:33;101297.58;;;18.46;55.80
79376;BME280;68846;53.150;18.136;2023-06-10T03:22:08;101297.42;;;18.43;55.79
79376;BME280;68846;53.150;18.136;2023-06-10T03:24:37;101296.36;;;18.44;55.80
79376;BME280;68846;53.150;18.136;2023-06-10T03:27:07;101297.98;;;18.41;55.76
79376;BME280;68846;53.150;18.136;2023-06-10T03:29:35;101295.34;;;18.38;55.82
79376;BME280;68846;53.150;18.136;2023-06-10T03:32:03;101299.16;;;18.32;55.74
79376;BME280;68846;53.150;18.136;2023-06-10T03:34:31;101301.88;;;18.28;55.84
79376;BME280;68846;53.150;18.136;2023-06-10T03:36:58;101306.89;;;18.26;55.79
79376;BME280;68846;53.150;18.136;2023-06-10T03:39:25;101310.10;;;18.26;55.86
79376;BME280;68846;53.150;18.136;2023-06-10T03:41:56;101311.73;;;18.24;55.85
79376;BME280;68846;53.150;18.136;2023-06-10T03:44:24;101316.72;;;18.25;55.65
79376;BME280;68846;53.150;18.136;2023-06-10T03:46:52;101319.21;;;18.24;55.80
79376;BME280;68846;53.150;18.136;2023-06-10T03:49:20;101321.38;;;18.21;55.65
79376;BME280;68846;53.150;18.136;2023-06-10T03:51:46;101321.57;;;18.21;55.51
79376;BME280;68846;53.150;18.136;2023-06-10T03:54:14;101324.03;;;18.25;55.41
79376;BME280;68846;53.150;18.136;2023-06-10T03:56:41;101317.10;;;18.21;55.19
79376;BME280;68846;53.150;18.136;2023-06-10T03:59:08;101337.70;;;18.31;55.07
79376;BME280;68846;53.150;18.136;2023-06-10T04:01:35;101347.11;;;18.32;55.03
79376;BME280;68846;53.150;18.136;2023-06-10T04:04:04;101352.77;;;18.38;54.71
79376;BME280;68846;53.150;18.136;2023-06-10T04:06:34;101358.44;;;18.42;54.52
79376;BME280;68846;53.150;18.136;2023-06-10T04:09:01;101354.12;;;18.44;54.20
79376;BME280;68846;53.150;18.136;2023-06-10T04:11:28;101354.61;;;18.46;53.98
79376;BME280;68846;53.150;18.136;2023-06-10T04:13:56;101352.85;;;18.47;53.79
79376;BME280;68846;53.150;18.136;2023-06-10T04:16:24;101357.05;;;18.54;53.65
79376;BME280;68846;53.150;18.136;2023-06-10T04:18:51;101357.69;;;18.61;53.22
79376;BME280;68846;53.150;18.136;2023-06-10T04:21:19;101350.56;;;18.60;52.84
79376;BME280;68846;53.150;18.136;2023-06-10T04:23:47;101367.07;;;18.69;52.64
79376;BME280;68846;53.150;18.136;2023-06-10T04:26:13;101358.36;;;18.67;52.19
79376;BME280;68846;53.150;18.136;2023-06-10T04:28:43;101375.24;;;18.72;52.13
79376;BME280;68846;53.150;18.136;2023-06-10T04:31:09;101369.34;;;18.74;51.73
79376;BME280;68846;53.150;18.136;2023-06-10T04:33:38;101363.80;;;18.74;51.33
79376;BME280;68846;53.150;18.136;2023-06-10T04:36:05;101373.21;;;18.79;51.25
79376;BME280;68846;53.150;18.136;2023-06-10T04:38:33;101373.13;;;18.86;50.72
79376;BME280;68846;53.150;18.136;2023-06-10T04:41:00;101365.45;;;18.86;50.45
79376;BME280;68846;53.150;18.136;2023-06-10T04:43:29;101362.37;;;18.89;50.75
79376;BME280;68846;53.150;18.136;2023-06-10T04:45:58;101366.04;;;18.95;50.15
79376;BME280;68846;53.150;18.136;2023-06-10T04:48:24;101372.63;;;18.97;49.95
79376;BME280;68846;53.150;18.136;2023-06-10T04:50:52;101372.04;;;19.00;49.76
79376;BME280;68846;53.150;18.136;2023-06-10T04:53:19;101371.36;;;18.98;49.30
79376;BME280;68846;53.150;18.136;2023-06-10T04:55:47;101371.52;;;18.98;49.57
79376;BME280;68846;53.150;18.136;2023-06-10T04:58:14;101375.08;;;19.01;48.94
79376;BME280;68846;53.150;18.136;2023-06-10T05:00:41;101376.34;;;18.99;48.93
79376;BME280;68846;53.150;18.136;2023-06-10T05:03:08;101373.38;;;18.94;48.82
79376;BME280;68846;53.150;18.136;2023-06-10T05:05:35;101383.14;;;18.98;48.79
79376;BME280;68846;53.150;18.136;2023-06-10T05:08:02;101384.17;;;19.00;48.63
79376;BME280;68846;53.150;18.136;2023-06-10T05:10:29;101383.11;;;19.01;48.22
79376;BME280;68846;53.150;18.136;2023-06-10T05:12:58;101384.01;;;18.99;48.08
79376;BME280;68846;53.150;18.136;2023-06-10T05:15:25;101383.69;;;18.97;47.81
79376;BME280;68846;53.150;18.136;2023-06-10T05:17:52;101381.94;;;18.93;47.76
79376;BME280;68846;53.150;18.136;2023-06-10T05:20:19;101386.09;;;18.91;47.88
79376;BME280;68846;53.150;18.136;2023-06-10T05:22:46;101384.16;;;18.88;47.71
79376;BME280;68846;53.150;18.136;2023-06-10T05:25:13;101387.79;;;18.83;47.76
79376;BME280;68846;53.150;18.136;2023-06-10T05:27:40;101387.42;;;18.83;47.74
79376;BME280;68846;53.150;18.136;2023-06-10T05:30:10;101387.45;;;18.81;47.55
79376;BME280;68846;53.150;18.136;2023-06-10T05:32:37;101382.13;;;18.79;47.62
79376;BME280;68846;53.150;18.136;2023-06-10T05:35:04;101381.92;;;18.80;47.71
79376;BME280;68846;53.150;18.136;2023-06-10T05:37:34;101385.14;;;18.81;47.56
79376;BME280;68846;53.150;18.136;2023-06-10T05:40:02;101384.78;;;18.80;47.54
79376;BME280;68846;53.150;18.136;2023-06-10T05:42:30;101386.73;;;18.81;47.68
79376;BME280;68846;53.150;18.136;2023-06-10T05:44:57;101391.89;;;18.82;47.57
79376;BME280;68846;53.150;18.136;2023-06-10T05:47:24;101393.16;;;18.81;47.65
79376;BME280;68846;53.150;18.136;2023-06-10T05:49:51;101383.04;;;18.77;47.75
79376;BME280;68846;53.150;18.136;2023-06-10T05:52:18;101392.90;;;18.87;47.85
79376;BME280;68846;53.150;18.136;2023-06-10T05:54:45;101396.63;;;18.89;47.76
79376;BME280;68846;53.150;18.136;2023-06-10T05:57:12;101383.50;;;18.83;47.76
79376;BME280;68846;53.150;18.136;2023-06-10T05:59:39;101398.23;;;18.89;48.01
79376;BME280;68846;53.150;18.136;2023-06-10T06:02:06;101402.89;;;18.90;47.92
79376;BME280;68846;53.150;18.136;2023-06-10T06:04:34;101408.55;;;18.92;48.17
79376;BME280;68846;53.150;18.136;2023-06-10T06:07:00;101396.30;;;18.86;48.24
79376;BME280;68846;53.150;18.136;2023-06-10T06:09:27;101401.25;;;18.92;48.20
79376;BME280;68846;53.150;18.136;2023-06-10T06:11:54;101400.92;;;18.89;48.28
79376;BME280;68846;53.150;18.136;2023-06-10T06:14:21;101393.79;;;18.88;48.39
79376;BME280;68846;53.150;18.136;2023-06-10T06:16:48;101395.92;;;18.89;48.58
79376;BME280;68846;53.150;18.136;2023-06-10T06:19:15;101400.72;;;18.91;48.60
79376;BME280;68846;53.150;18.136;2023-06-10T06:21:43;101397.30;;;18.93;48.64
79376;BME280;68846;53.150;18.136;2023-06-10T06:24:10;101386.98;;;18.91;48.74
79376;BME280;68846;53.150;18.136;2023-06-10T06:26:36;101404.81;;;19.06;48.78
79376;BME280;68846;53.150;18.136;2023-06-10T06:29:04;101411.33;;;19.13;48.85
79376;BME280;68846;53.150;18.136;2023-06-10T06:31:31;101407.33;;;19.18;48.66
79376;BME280;68846;53.150;18.136;2023-06-10T06:33:58;101407.21;;;19.28;48.76
79376;BME280;68846;53.150;18.136;2023-06-10T06:36:24;101408.55;;;19.34;48.78
79376;BME280;68846;53.150;18.136;2023-06-10T06:38:51;101386.80;;;19.31;48.82
79376;BME280;68846;53.150;18.136;2023-06-10T06:41:19;101402.23;;;19.50;48.96
79376;BME280;68846;53.150;18.136;2023-06-10T06:43:46;101402.98;;;19.63;48.51
79376;BME280;68846;53.150;18.136;2023-06-10T06:46:30;101390.15;;;19.72;48.05
79376;BME280;68846;53.150;18.136;2023-06-10T06:48:57;101402.40;;;19.89;47.46
79376;BME280;68846;53.150;18.136;2023-06-10T06:51:23;101403.48;;;19.99;47.13
79376;BME280;68846;53.150;18.136;2023-06-10T06:53:51;101403.66;;;20.10;47.15
79376;BME280;68846;53.150;18.136;2023-06-10T06:56:21;101401.95;;;20.16;46.86
79376;BME280;68846;53.150;18.136;2023-06-10T06:58:49;101405.58;;;20.23;46.80
79376;BME280;68846;53.150;18.136;2023-06-10T07:01:16;101417.21;;;20.33;46.51
79376;BME280;68846;53.150;18.136;2023-06-10T07:03:43;101419.57;;;20.31;46.12
79376;BME280;68846;53.150;18.136;2023-06-10T07:06:11;101420.16;;;20.28;46.41
79376;BME280;68846;53.150;18.136;2023-06-10T07:08:38;101421.38;;;20.30;46.40
79376;BME280;68846;53.150;18.136;2023-06-10T07:11:05;101422.95;;;20.31;46.28
79376;BME280;68846;53.150;18.136;2023-06-10T07:13:32;101420.98;;;20.31;46.31
79376;BME280;68846;53.150;18.136;2023-06-10T07:15:59;101421.41;;;20.28;46.34
79376;BME280;68846;53.150;18.136;2023-06-10T07:18:26;101418.56;;;20.26;46.73
79376;BME280;68846;53.150;18.136;2023-06-10T07:20:53;101420.14;;;20.29;46.90
79376;BME280;68846;53.150;18.136;2023-06-10T07:23:20;101422.20;;;20.34;47.03
79376;BME280;68846;53.150;18.136;2023-06-10T07:25:48;101421.57;;;20.40;47.22
79376;BME280;68846;53.150;18.136;2023-06-10T07:28:15;101419.34;;;20.45;47.09
79376;BME280;68846;53.150;18.136;2023-06-10T07:30:41;101421.14;;;20.55;47.12
79376;BME280;68846;53.150;18.136;2023-06-10T07:33:09;101420.25;;;20.65;47.18
79376;BME280;68846;53.150;18.136;2023-06-10T07:35:37;101422.77;;;20.72;47.00
79376;BME280;68846;53.150;18.136;2023-06-10T07:38:04;101424.41;;;20.80;46.70
79376;BME280;68846;53.150;18.136;2023-06-10T07:40:31;101421.08;;;20.86;46.81
79376;BME280;68846;53.150;18.136;2023-06-10T07:42:58;101423.05;;;20.95;46.81
79376;BME280;68846;53.150;18.136;2023-06-10T07:45:25;101421.82;;;21.02;46.43
79376;BME280;68846;53.150;18.136;2023-06-10T07:47:52;101424.38;;;21.08;45.93
79376;BME280;68846;53.150;18.136;2023-06-10T07:50:19;101430.68;;;21.16;45.54
79376;BME280;68846;53.150;18.136;2023-06-10T07:52:46;101429.63;;;21.23;45.16
79376;BME280;68846;53.150;18.136;2023-06-10T07:55:13;101437.52;;;21.31;44.92
79376;BME280;68846;53.150;18.136;2023-06-10T07:57:40;101428.80;;;21.38;44.88
79376;BME280;68846;53.150;18.136;2023-06-10T08:00:07;101432.20;;;21.46;44.75
79376;BME280;68846;53.150;18.136;2023-06-10T08:02:40;101432.04;;;21.53;44.26
79376;BME280;68846;53.150;18.136;2023-06-10T08:05:08;101430.33;;;21.57;43.86
79376;BME280;68846;53.150;18.136;2023-06-10T08:07:35;101440.77;;;21.63;43.70
79376;BME280;68846;53.150;18.136;2023-06-10T08:10:02;101439.77;;;21.68;43.59
79376;BME280;68846;53.150;18.136;2023-06-10T08:12:30;101445.19;;;21.74;43.10
79376;BME280;68846;53.150;18.136;2023-06-10T08:14:57;101447.77;;;21.78;43.20
79376;BME280;68846;53.150;18.136;2023-06-10T08:17:24;101440.91;;;21.80;43.16
79376;BME280;68846;53.150;18.136;2023-06-10T08:19:51;101448.79;;;21.88;43.17
79376;BME280;68846;53.150;18.136;2023-06-10T08:22:18;101450.55;;;21.97;43.28
79376;BME280;68846;53.150;18.136;2023-06-10T08:24:45;101457.15;;;22.06;43.24
79376;BME280;68846;53.150;18.136;2023-06-10T08:27:12;101455.70;;;22.15;42.16
79376;BME280;68846;53.150;18.136;2023-06-10T08:29:39;101455.98;;;22.19;42.06
79376;BME280;68846;53.150;18.136;2023-06-10T08:32:06;101460.52;;;22.23;42.25
79376;BME280;68846;53.150;18.136;2023-06-10T08:34:34;101457.20;;;22.27;41.81
79376;BME280;68846;53.150;18.136;2023-06-10T08:37:05;101452.14;;;22.28;42.30
79376;BME280;68846;53.150;18.136;2023-06-10T08:39:32;101455.39;;;22.41;42.05
79376;BME280;68846;53.150;18.136;2023-06-10T08:42:21;101455.70;;;22.50;41.86
79376;BME280;68846;53.150;18.136;2023-06-10T08:44:53;101456.09;;;22.56;41.83
79376;BME280;68846;53.150;18.136;2023-06-10T08:47:25;101462.22;;;22.61;41.78
79376;BME280;68846;53.150;18.136;2023-06-10T08:49:54;101457.02;;;22.61;41.27
79376;BME280;68846;53.150;18.136;2023-06-10T08:52:25;101465.95;;;22.69;40.53
79376;BME280;68846;53.150;18.136;2023-06-10T08:55:03;101465.89;;;22.71;40.51
79376;BME280;68846;53.150;18.136;2023-06-10T08:57:31;101470.17;;;22.73;40.17
79376;BME280;68846;53.150;18.136;2023-06-10T08:59:58;101465.10;;;22.75;40.35
79376;BME280;68846;53.150;18.136;2023-06-10T09:02:26;101465.34;;;22.79;40.17
79376;BME280;68846;53.150;18.136;2023-06-10T09:04:55;101464.11;;;22.85;40.41
79376;BME280;68846;53.150;18.136;2023-06-10T09:07:24;101461.56;;;22.93;40.35
79376;BME280;68846;53.150;18.136;2023-06-10T09:09:53;101462.73;;;23.03;39.83
79376;BME280;68846;53.150;18.136;2023-06-10T09:12:20;101461.45;;;23.10;39.99
79376;BME280;68846;53.150;18.136;2023-06-10T09:14:47;101457.48;;;23.17;39.77
79376;BME280;68846;53.150;18.136;2023-06-10T09:17:13;101462.31;;;23.23;39.69
79376;BME280;68846;53.150;18.136;2023-06-10T09:19:41;101467.91;;;23.29;39.56
79376;BME280;68846;53.150;18.136;2023-06-10T09:22:09;101464.50;;;23.35;39.21
79376;BME280;68846;53.150;18.136;2023-06-10T09:24:37;101460.16;;;23.36;39.05
79376;BME280;68846;53.150;18.136;2023-06-10T09:27:07;101457.20;;;23.38;39.02
79376;BME280;68846;53.150;18.136;2023-06-10T09:29:47;101459.55;;;23.44;39.24
79376;BME280;68846;53.150;18.136;2023-06-10T09:32:41;101449.13;;;23.50;38.82
79376;BME280;68846;53.150;18.136;2023-06-10T09:35:11;101456.39;;;23.66;38.52
79376;BME280;68846;53.150;18.136;2023-06-10T09:37:38;101452.83;;;23.76;38.27
79376;BME280;68846;53.150;18.136;2023-06-10T09:40:07;101452.86;;;23.87;38.17
79376;BME280;68846;53.150;18.136;2023-06-10T09:42:38;101454.77;;;23.94;37.20
79376;BME280;68846;53.150;18.136;2023-06-10T09:45:06;101453.67;;;24.00;37.70
79376;BME280;68846;53.150;18.136;2023-06-10T09:47:34;101451.75;;;24.09;36.94
79376;BME280;68846;53.150;18.136;2023-06-10T09:50:01;101449.02;;;24.16;37.13
79376;BME280;68846;53.150;18.136;2023-06-10T09:52:29;101448.66;;;24.26;36.61
79376;BME280;68846;53.150;18.136;2023-06-10T09:55:01;101447.95;;;24.38;36.36
79376;BME280;68846;53.150;18.136;2023-06-10T09:57:32;101450.77;;;24.45;36.14
79376;BME280;68846;53.150;18.136;2023-06-10T10:00:05;101443.09;;;24.53;35.73
79376;BME280;68846;53.150;18.136;2023-06-10T10:02:46;101451.49;;;24.60;35.35
79376;BME280;68846;53.150;18.136;2023-06-10T10:05:15;101448.21;;;24.66;35.21
79376;BME280;68846;53.150;18.136;2023-06-10T10:07:44;101452.36;;;24.76;34.89
79376;BME280;68846;53.150;18.136;2023-06-10T10:10:13;101447.59;;;24.89;32.84
79376;BME280;68846;53.150;18.136;2023-06-10T10:12:41;101453.73;;;24.98;33.42
79376;BME280;68846;53.150;18.136;2023-06-10T10:15:10;101451.83;;;25.06;32.78
79376;BME280;68846;53.150;18.136;2023-06-10T10:17:49;101453.79;;;25.16;32.05
79376;BME280;68846;53.150;18.136;2023-06-10T10:20:27;101453.52;;;25.33;31.97
79376;BME280;68846;53.150;18.136;2023-06-10T10:22:56;101459.80;;;25.48;31.66
79376;BME280;68846;53.150;18.136;2023-06-10T10:25:28;101456.67;;;25.63;31.20
79376;BME280;68846;53.150;18.136;2023-06-10T10:28:01;101449.15;;;25.62;30.48
79376;BME280;68846;53.150;18.136;2023-06-10T10:30:30;101454.60;;;25.70;30.55
79376;BME280;68846;53.150;18.136;2023-06-10T10:33:04;101450.83;;;25.88;30.84
79376;BME280;68846;53.150;18.136;2023-06-10T10:35:33;101455.86;;;26.10;30.03
79376;BME280;68846;53.150;18.136;2023-06-10T10:38:02;101454.23;;;26.19;29.76
79376;BME280;68846;53.150;18.136;2023-06-10T10:40:31;101450.78;;;26.20;30.05
79376;BME280;68846;53.150;18.136;2023-06-10T10:43:00;101454.24;;;26.24;29.68
79376;BME280;68846;53.150;18.136;2023-06-10T10:45:29;101446.02;;;26.26;30.04
79376;BME280;68846;53.150;18.136;2023-06-10T10:47:56;101445.89;;;26.33;29.94
79376;BME280;68846;53.150;18.136;2023-06-10T10:50:28;101435.42;;;26.42;30.19
79376;BME280;68846;53.150;18.136;2023-06-10T10:53:02;101436.77;;;26.61;30.51
79376;BME280;68846;53.150;18.136;2023-06-10T10:55:29;101447.59;;;26.82;29.69
79376;BME280;68846;53.150;18.136;2023-06-10T10:58:05;101443.34;;;26.88;29.47
79376;BME280;68846;53.150;18.136;2023-06-10T11:00:37;101448.92;;;26.92;29.28
79376;BME280;68846;53.150;18.136;2023-06-10T11:03:06;101448.36;;;27.01;29.63
79376;BME280;68846;53.150;18.136;2023-06-10T11:05:40;101451.92;;;27.10;29.25
79376;BME280;68846;53.150;18.136;2023-06-10T11:08:11;101434.15;;;27.11;28.89
79376;BME280;68846;53.150;18.136;2023-06-10T11:10:40;101442.21;;;27.21;28.91
79376;BME280;68846;53.150;18.136;2023-06-10T11:13:09;101442.43;;;27.32;28.60
79376;BME280;68846;53.150;18.136;2023-06-10T11:18:29;101440.14;;;27.53;27.74
79376;BME280;68846;53.150;18.136;2023-06-10T11:21:04;101436.20;;;27.60;27.26
79376;BME280;68846;53.150;18.136;2023-06-10T11:23:32;101432.13;;;27.62;26.96
79376;BME280;68846;53.150;18.136;2023-06-10T11:31:21;101436.32;;;27.73;25.77
79376;BME280;68846;53.150;18.136;2023-06-10T11:33:55;101441.13;;;27.82;25.56
79376;BME280;68846;53.150;18.136;2023-06-10T11:36:24;101440.83;;;27.85;25.16
79376;BME280;68846;53.150;18.136;2023-06-10T11:38:59;101423.98;;;27.81;24.80
79376;BME280;68846;53.150;18.136;2023-06-10T11:41:28;101428.95;;;27.93;24.70
79376;BME280;68846;53.150;18.136;2023-06-10T11:44:12;101433.20;;;27.99;24.14
79376;BME280;68846;53.150;18.136;2023-06-10T11:46:40;101439.27;;;28.05;24.21
79376;BME280;68846;53.150;18.136;2023-06-10T11:49:09;101432.91;;;28.16;24.08
79376;BME280;68846;53.150;18.136;2023-06-10T11:51:38;101428.09;;;28.29;24.28
79376;BME280;68846;53.150;18.136;2023-06-10T11:54:09;101435.91;;;28.43;23.19
79376;BME280;68846;53.150;18.136;2023-06-10T11:56:36;101433.04;;;28.56;21.77
79376;BME280;68846;53.150;18.136;2023-06-10T11:59:06;101430.52;;;28.63;21.65
79376;BME280;68846;53.150;18.136;2023-06-10T12:01:35;101423.02;;;28.61;21.01
79376;BME280;68846;53.150;18.136;2023-06-10T12:09:17;101427.29;;;28.69;21.22
79376;BME280;68846;53.150;18.136;2023-06-10T12:11:45;101424.31;;;28.73;21.02
79376;BME280;68846;53.150;18.136;2023-06-10T12:14:14;101427.42;;;28.80;20.27
79376;BME280;68846;53.150;18.136;2023-06-10T12:16:48;101417.55;;;28.85;19.31
79376;BME280;68846;53.150;18.136;2023-06-10T12:19:16;101423.41;;;28.91;18.39
79376;BME280;68846;53.150;18.136;2023-06-10T12:21:44;101425.02;;;28.91;18.95
79376;BME280;68846;53.150;18.136;2023-06-10T12:24:11;101417.73;;;28.99;19.57
79376;BME280;68846;53.150;18.136;2023-06-10T12:26:41;101431.08;;;29.23;18.73
79376;BME280;68846;53.150;18.136;2023-06-10T12:31:54;101428.72;;;29.30;18.08
79376;BME280;68846;53.150;18.136;2023-06-10T12:34:40;101425.15;;;29.32;17.62
79376;BME280;68846;53.150;18.136;2023-06-10T12:37:12;101424.52;;;29.30;17.70
79376;BME280;68846;53.150;18.136;2023-06-10T12:39:41;101419.73;;;29.32;17.19
79376;BME280;68846;53.150;18.136;2023-06-10T12:42:09;101429.67;;;29.39;16.70
79376;BME280;68846;53.150;18.136;2023-06-10T12:44:40;101432.15;;;29.40;16.73
79376;BME280;68846;53.150;18.136;2023-06-10T12:47:11;101425.42;;;29.37;17.08
79376;BME280;68846;53.150;18.136;2023-06-10T12:49:41;101423.09;;;29.40;17.48
79376;BME280;68846;53.150;18.136;2023-06-10T12:52:08;101421.98;;;29.46;17.38
79376;BME280;68846;53.150;18.136;2023-06-10T12:54:35;101423.21;;;29.54;17.87
79376;BME280;68846;53.150;18.136;2023-06-10T12:57:02;101421.63;;;29.63;18.30
79376;BME280;68846;53.150;18.136;2023-06-10T12:59:29;101422.62;;;29.77;18.30
79376;BME280;68846;53.150;18.136;2023-06-10T13:01:58;101415.41;;;29.89;18.71
79376;BME280;68846;53.150;18.136;2023-06-10T13:04:25;101414.14;;;30.01;18.31
79376;BME280;68846;53.150;18.136;2023-06-10T13:06:53;101409.60;;;30.01;18.65
79376;BME280;68846;53.150;18.136;2023-06-10T13:09:21;101404.20;;;29.97;18.72